Terminal Aerodrome Forecast
Issued by NWS Charleston, WV

Current Version | Previous Version | Text Only | Print | Product List | Glossary Off
Versions: 1 2 3 4 5 6 7 8 9 10 11 12 13 14 15 16 17 18 19 20 21 22 23 24

000
FTUS41 KRLX 232332
TAFCRW
TAF
KCRW 232332Z 2400/2424 21006KT 5SM SHRA OVC030
      TEMPO 2400/2403 2SM SHRA OVC020
     FM240300 21005KT P6SM -SHRA OVC015
      TEMPO 2403/2405 3SM -SHRA OVC007
     FM240500 24006KT 3SM -SHRA OVC008
     FM240900 26005KT P6SM SHRA OVC008
     FM241000 26005KT P6SM BKN008
     FM241500 27004KT P6SM BKN035=

USA.gov is the U.S. government's official web portal to all federal, state and local government web resources and services.